createdAt,value
2018-04-15T00:01:28.773Z,97125.46
2018-04-15T00:03:56.242Z,97120.52
2018-04-15T00:06:23.794Z,97120.55
2018-04-15T00:08:51.246Z,97121.01
2018-04-15T00:11:18.634Z,97115.66
2018-04-15T00:13:46.060Z,97110.78
2018-04-15T00:16:13.504Z,97104.25
2018-04-15T00:18:40.941Z,97100.62
2018-04-15T00:21:09.306Z,97097.84
2018-04-15T00:23:36.760Z,97096.41
2018-04-15T00:26:04.251Z,97094.03
2018-04-15T00:28:31.696Z,97085.36
2018-04-15T00:30:59.170Z,97087.13
2018-04-15T00:33:26.637Z,97087.92
2018-04-15T00:35:54.094Z,97082.41
2018-04-15T00:38:21.662Z,97088.79
2018-04-15T00:40:49.135Z,97082.30
2018-04-15T00:43:16.608Z,97081.85
2018-04-15T00:45:44.041Z,97077.51
2018-04-15T00:48:11.518Z,97071.33
2018-04-15T00:50:38.977Z,97068.83
2018-04-15T00:53:06.420Z,97060.19
2018-04-15T00:55:33.811Z,97063.17
2018-04-15T00:58:01.276Z,97059.29
2018-04-15T01:00:28.763Z,97051.37
2018-04-15T01:02:56.343Z,97055.41
2018-04-15T01:05:23.801Z,97058.42
2018-04-15T01:07:51.235Z,97053.30
2018-04-15T01:10:18.829Z,97043.79
2018-04-15T01:12:46.253Z,97045.82
2018-04-15T01:15:13.681Z,97039.02
2018-04-15T01:17:41.078Z,97033.55
2018-04-15T01:20:08.475Z,97033.82
2018-04-15T01:22:35.913Z,97041.11
2018-04-15T01:25:03.344Z,97042.09
2018-04-15T01:27:30.809Z,97035.77
2018-04-15T01:29:58.199Z,97042.14
2018-04-15T01:32:25.801Z,97036.30
2018-04-15T01:34:53.200Z,97035.31
2018-04-15T01:37:20.638Z,97034.33
2018-04-15T01:39:48.061Z,97035.57
2018-04-15T01:42:15.517Z,97031.98
2018-04-15T01:44:42.906Z,97036.84
2018-04-15T01:47:10.388Z,97039.32
2018-04-15T01:49:37.917Z,97031.06
2018-04-15T01:52:05.557Z,97036.27
2018-04-15T01:54:32.993Z,97032.16
2018-04-15T01:57:00.416Z,97028.98
2018-04-15T01:59:27.811Z,97025.62
2018-04-15T02:01:55.296Z,97032.27
2018-04-15T02:04:22.766Z,97034.06
2018-04-15T02:06:50.203Z,97022.69
2018-04-15T02:09:17.590Z,97028.86
2018-04-15T02:11:45.182Z,97027.84
2018-04-15T02:14:12.614Z,97027.36
2018-04-15T02:16:40.059Z,97028.30
2018-04-15T02:19:07.490Z,97026.45
2018-04-15T02:21:34.951Z,97024.65
2018-04-15T02:24:02.373Z,97023.80
2018-04-15T02:26:29.880Z,97020.09
2018-04-15T02:28:57.434Z,97022.73
2018-04-15T02:31:25.062Z,97019.98
2018-04-15T02:33:52.506Z,97016.14
2018-04-15T02:36:19.970Z,97012.25
2018-04-15T02:38:47.376Z,97012.25
2018-04-15T02:41:14.804Z,97015.13
2018-04-15T02:43:42.213Z,97011.70
2018-04-15T02:46:09.655Z,97012.53
2018-04-15T02:48:37.063Z,97008.23
2018-04-15T02:51:04.538Z,97007.25
2018-04-15T02:53:31.970Z,96997.95
2018-04-15T02:55:59.398Z,96998.92
2018-04-15T02:58:26.845Z,96994.36
2018-04-15T03:00:54.374Z,96991.77
2018-04-15T03:03:21.924Z,96993.69
2018-04-15T03:05:49.396Z,96984.19
2018-04-15T03:08:16.819Z,96986.59
2018-04-15T03:10:44.250Z,96976.38
2018-04-15T03:13:11.680Z,96974.75
2018-04-15T03:15:39.081Z,96964.65
2018-04-15T03:18:06.508Z,96954.66
2018-04-15T03:20:33.911Z,96947.34
2018-04-15T03:23:01.361Z,96945.04
2018-04-15T03:25:28.753Z,96943.13
2018-04-15T03:27:56.188Z,96940.00
2018-04-15T03:30:23.664Z,96937.62
2018-04-15T03:32:51.121Z,96936.25
2018-04-15T03:35:18.599Z,96929.20
2018-04-15T03:37:46.060Z,96922.92
2018-04-15T03:40:13.500Z,96920.95
2018-04-15T03:42:40.954Z,96916.40
2018-04-15T03:45:08.371Z,96917.42
2018-04-15T03:47:35.837Z,96914.23
2018-04-15T03:50:03.267Z,96918.85
2018-04-15T03:52:30.725Z,96915.16
2018-04-15T03:54:58.188Z,96909.69
2018-04-15T03:57:25.609Z,96910.23
2018-04-15T03:59:53.066Z,96905.70
2018-04-15T04:02:20.499Z,96902.70
2018-04-15T04:04:48.593Z,96898.81
2018-04-15T04:07:16.053Z,96900.73
2018-04-15T04:09:43.439Z,96899.41
2018-04-15T04:12:10.862Z,96898.84
2018-04-15T04:14:38.250Z,96902.27
2018-04-15T04:17:05.688Z,96899.45
2018-04-15T04:19:44.838Z,96895.25
2018-04-15T04:22:23.985Z,96899.81
2018-04-15T04:28:07.535Z,96903.75
2018-04-15T04:30:35.161Z,96898.24
2018-04-15T04:33:02.642Z,96893.98
2018-04-15T04:35:30.080Z,96891.00
2018-04-15T04:37:57.524Z,96900.83
2018-04-15T04:40:24.999Z,96898.47
2018-04-15T04:42:52.491Z,96902.53
2018-04-15T04:45:19.897Z,96896.28
2018-04-15T04:47:47.349Z,96895.47
2018-04-15T04:50:14.824Z,96892.52
2018-04-15T04:52:42.252Z,96887.96
2018-04-15T04:55:09.635Z,96885.23
2018-04-15T04:57:37.124Z,96886.70
2018-04-15T05:00:04.627Z,96898.82
2018-04-15T05:02:32.015Z,96906.95
2018-04-15T05:04:59.443Z,96912.11
2018-04-15T05:07:26.904Z,96902.34
2018-04-15T05:09:54.315Z,96905.63
2018-04-15T05:12:21.743Z,96902.77
2018-04-15T05:14:49.774Z,96901.41
2018-04-15T05:17:17.186Z,96904.08
2018-04-15T05:19:44.629Z,96911.38
2018-04-15T05:22:12.047Z,96908.64
2018-04-15T05:24:39.428Z,96916.73
2018-04-15T05:27:06.975Z,96914.85
2018-04-15T05:29:34.362Z,96913.64
2018-04-15T05:32:01.836Z,96907.23
2018-04-15T05:34:29.291Z,96909.87
2018-04-15T05:36:56.683Z,96911.36
2018-04-15T05:39:24.116Z,96907.66
2018-04-15T05:41:52.182Z,96914.37
2018-04-15T05:44:19.607Z,96919.59
2018-04-15T05:46:47.063Z,96922.61
2018-04-15T05:49:14.501Z,96920.91
2018-04-15T05:51:42.021Z,96909.16
2018-04-15T05:54:09.476Z,96909.80
2018-04-15T05:56:36.863Z,96907.75
2018-04-15T05:59:04.265Z,96903.81
2018-04-15T06:01:31.663Z,96905.41
2018-04-15T06:03:59.178Z,96905.66
2018-04-15T06:06:26.599Z,96899.48
2018-04-15T06:08:54.303Z,96903.40
2018-04-15T06:11:21.783Z,96890.98
2018-04-15T06:13:49.672Z,96893.60
2018-04-15T06:16:17.097Z,96895.08
2018-04-15T06:18:44.581Z,96891.42
2018-04-15T06:21:12.206Z,96886.49
2018-04-15T06:23:39.637Z,96878.77
2018-04-15T06:26:07.087Z,96881.14
2018-04-15T06:28:34.523Z,96884.33
2018-04-15T06:31:01.965Z,96881.78
2018-04-15T06:33:29.354Z,96880.06
2018-04-15T06:35:56.862Z,96876.73
2018-04-15T06:38:24.363Z,96871.59
2018-04-15T06:40:51.844Z,96867.45
2018-04-15T06:43:19.311Z,96876.66
2018-04-15T06:45:46.744Z,96872.70
2018-04-15T06:48:14.180Z,96869.97
2018-04-15T06:50:41.646Z,96868.03
2018-04-15T06:53:09.126Z,96859.73
2018-04-15T06:55:36.532Z,96857.91
2018-04-15T06:58:03.971Z,96854.59
2018-04-15T07:00:31.397Z,96855.98
2018-04-15T07:02:58.773Z,96852.38
2018-04-15T07:05:26.231Z,96850.27
2018-04-15T07:07:53.692Z,96851.80
2018-04-15T07:10:21.137Z,96849.80
2018-04-15T07:12:48.575Z,96849.15
2018-04-15T07:15:16.036Z,96848.05
2018-04-15T07:17:43.511Z,96841.80
2018-04-15T07:20:10.952Z,96846.80
2018-04-15T07:22:38.393Z,96844.88
2018-04-15T07:25:05.949Z,96842.56
2018-04-15T07:27:33.393Z,96840.13
2018-04-15T07:30:00.860Z,96837.55
2018-04-15T07:32:28.325Z,96842.55
2018-04-15T07:34:55.719Z,96842.41
2018-04-15T07:37:23.164Z,96840.91
2018-04-15T07:39:50.800Z,96845.91
2018-04-15T07:42:18.689Z,96844.17
2018-04-15T07:44:46.122Z,96848.99
2018-04-15T07:47:13.546Z,96854.44
2018-04-15T07:49:40.956Z,96845.47
2018-04-15T07:52:08.346Z,96845.20
2018-04-15T07:54:35.786Z,96840.69
2018-04-15T07:57:03.253Z,96836.91
2018-04-15T07:59:30.748Z,96828.92
2018-04-15T08:01:58.163Z,96833.93
2018-04-15T08:04:25.621Z,96834.00
2018-04-15T08:06:53.040Z,96832.13
2018-04-15T08:09:20.492Z,96833.75
2018-04-15T08:11:47.965Z,96827.97
2018-04-15T08:14:15.389Z,96826.41
2018-04-15T08:16:42.864Z,96825.78
2018-04-15T08:19:10.258Z,96834.48
2018-04-15T08:21:37.689Z,96820.75
2018-04-15T08:24:05.110Z,96825.97
2018-04-15T08:26:32.577Z,96830.02
2018-04-15T08:29:00.055Z,96823.80
2018-04-15T08:31:27.516Z,96819.95
2018-04-15T08:33:54.983Z,96831.32
2018-04-15T08:36:22.465Z,96821.29
2018-04-15T08:38:49.875Z,96823.92
2018-04-15T08:41:17.337Z,96819.38
2018-04-15T08:43:44.812Z,96816.90
2018-04-15T08:46:12.243Z,96819.50
2018-04-15T08:48:39.749Z,96821.75
2018-04-15T08:51:07.215Z,96821.22
2018-04-15T08:53:34.677Z,96815.55
2018-04-15T08:56:02.107Z,96816.23
2018-04-15T08:58:29.549Z,96810.02
2018-04-15T09:00:56.948Z,96812.07
2018-04-15T09:03:24.380Z,96807.41
2018-04-15T09:05:51.826Z,96805.95
2018-04-15T09:08:19.305Z,96804.47
2018-04-15T09:10:46.771Z,96801.87
2018-04-15T09:13:14.220Z,96790.40
2018-04-15T09:15:41.683Z,96781.77
2018-04-15T09:18:09.131Z,96778.66
2018-04-15T09:20:36.565Z,96776.34
2018-04-15T09:23:04.007Z,96775.95
2018-04-15T09:25:31.475Z,96771.44
2018-04-15T09:27:58.932Z,96765.00
2018-04-15T09:30:26.389Z,96757.97
2018-04-15T09:32:53.829Z,96761.48
2018-04-15T09:35:21.281Z,96754.25
2018-04-15T09:37:48.718Z,96748.30
2018-04-15T09:40:16.288Z,96749.17
2018-04-15T09:42:43.765Z,96744.14
2018-04-15T09:45:11.202Z,96742.70
2018-04-15T09:47:38.679Z,96746.09
2018-04-15T09:50:07.045Z,96742.72
2018-04-15T09:52:34.499Z,96744.15
2018-04-15T09:55:01.973Z,96744.31
2018-04-15T09:57:29.445Z,96743.11
2018-04-15T09:59:56.866Z,96748.77
2018-04-15T10:02:24.326Z,96745.78
2018-04-15T10:04:51.758Z,96751.95
2018-04-15T10:07:19.191Z,96741.95
2018-04-15T10:09:46.600Z,96741.94
2018-04-15T10:12:14.077Z,96732.77
2018-04-15T10:14:41.595Z,96734.55
2018-04-15T10:17:09.032Z,96729.44
2018-04-15T10:19:36.502Z,96727.98
2018-04-15T10:22:03.929Z,96731.97
2018-04-15T10:24:31.412Z,96730.56
2018-04-15T10:26:58.855Z,96734.13
2018-04-15T10:29:26.334Z,96731.50
2018-04-15T10:31:53.839Z,96731.53
2018-04-15T10:34:21.279Z,96718.79
2018-04-15T10:36:48.723Z,96728.02
2018-04-15T10:39:16.159Z,96724.34
2018-04-15T10:41:43.597Z,96722.18
2018-04-15T10:44:11.062Z,96714.47
2018-04-15T10:46:38.482Z,96715.73
2018-04-15T10:49:05.912Z,96714.00
2018-04-15T10:51:33.349Z,96706.73
2018-04-15T10:54:00.825Z,96707.33
2018-04-15T10:56:28.289Z,96701.17
2018-04-15T10:58:55.763Z,96706.93
2018-04-15T11:01:23.223Z,96705.94
2018-04-15T11:03:50.648Z,96702.20
2018-04-15T11:06:18.101Z,96700.09
2018-04-15T11:08:45.569Z,96708.55
2018-04-15T11:11:12.975Z,96706.29
2018-04-15T11:13:40.448Z,96699.30
2018-04-15T11:16:07.901Z,96702.81
2018-04-15T11:18:35.321Z,96685.47
2018-04-15T11:21:02.817Z,96679.23
2018-04-15T11:23:30.262Z,96680.06
2018-04-15T11:25:57.713Z,96675.12
2018-04-15T11:28:25.199Z,96678.77
2018-04-15T11:30:52.639Z,96676.81
2018-04-15T11:33:20.060Z,96676.20
2018-04-15T11:35:47.516Z,96674.72
2018-04-15T11:38:15.093Z,96669.50
2018-04-15T11:40:42.517Z,96665.25
2018-04-15T11:43:09.966Z,96668.23
2018-04-15T11:45:37.374Z,96665.47
2018-04-15T11:48:05.189Z,96656.10
2018-04-15T11:50:32.806Z,96654.21
2018-04-15T11:53:00.225Z,96651.02
2018-04-15T11:55:27.666Z,96651.27
2018-04-15T11:57:55.146Z,96641.33
2018-04-15T12:00:22.553Z,96630.15
2018-04-15T12:02:50.136Z,96637.58
2018-04-15T12:05:17.562Z,96631.45
2018-04-15T12:07:44.977Z,96630.76
2018-04-15T12:10:12.488Z,96635.46
2018-04-15T12:12:39.962Z,96623.90
2018-04-15T12:15:07.406Z,96617.42
2018-04-15T12:17:34.819Z,96618.92
2018-04-15T12:20:02.297Z,96616.44
2018-04-15T12:22:29.762Z,96612.52
2018-04-15T12:24:57.157Z,96604.30
2018-04-15T12:27:24.566Z,96604.30
2018-04-15T12:29:52.036Z,96595.45
2018-04-15T12:32:19.440Z,96592.34
2018-04-15T12:34:46.881Z,96586.49
2018-04-15T12:37:14.324Z,96581.59
2018-04-15T12:39:41.766Z,96573.87
2018-04-15T12:42:09.227Z,96573.28
2018-04-15T12:44:36.752Z,96564.30
2018-04-15T12:47:04.504Z,96561.17
2018-04-15T12:49:31.952Z,96555.98
2018-04-15T12:51:59.339Z,96555.78
2018-04-15T12:54:26.793Z,96550.46
2018-04-15T12:56:54.259Z,96547.79
2018-04-15T12:59:21.687Z,96539.75
2018-04-15T13:01:49.135Z,96536.35
2018-04-15T13:04:16.595Z,96535.44
2018-04-15T13:06:44.223Z,96528.54
2018-04-15T13:09:11.639Z,96532.75
2018-04-15T13:11:39.050Z,96525.28
2018-04-15T13:14:06.537Z,96523.31
2018-04-15T13:16:33.980Z,96515.94
2018-04-15T13:19:01.420Z,96511.47
2018-04-15T13:21:28.893Z,96516.83
2018-04-15T13:23:56.328Z,96511.94
2018-04-15T13:26:23.946Z,96507.12
2018-04-15T13:28:51.458Z,96503.95
2018-04-15T13:31:18.917Z,96499.70
2018-04-15T13:33:46.361Z,96494.80
2018-04-15T13:36:13.801Z,96494.73
2018-04-15T13:38:41.279Z,96493.08
2018-04-15T13:41:08.740Z,96491.72
2018-04-15T13:43:36.177Z,96487.09
2018-04-15T13:46:03.619Z,96489.41
2018-04-15T13:48:31.124Z,96479.88
2018-04-15T13:50:58.615Z,96477.13
2018-04-15T13:53:26.068Z,96472.66
2018-04-15T13:55:53.561Z,96476.02
2018-04-15T13:58:21.093Z,96473.81
2018-04-15T14:00:48.578Z,96471.91
2018-04-15T14:03:16.083Z,96466.62
2018-04-15T14:05:43.746Z,96468.72
2018-04-15T14:08:11.305Z,96466.92
2018-04-15T14:10:38.756Z,96470.70
2018-04-15T14:13:06.400Z,96464.17
2018-04-15T14:15:34.026Z,96458.69
2018-04-15T14:18:01.464Z,96455.51
2018-04-15T14:20:28.964Z,96446.98
2018-04-15T14:22:56.476Z,96450.56
2018-04-15T14:25:23.923Z,96446.09
2018-04-15T14:27:51.437Z,96444.70
2018-04-15T14:30:18.902Z,96443.64
2018-04-15T14:32:46.404Z,96444.95
2018-04-15T14:35:13.861Z,96442.00
2018-04-15T14:37:41.253Z,96441.75
2018-04-15T14:40:08.802Z,96436.61
2018-04-15T14:42:36.266Z,96434.55
2018-04-15T14:45:03.763Z,96437.30
2018-04-15T14:47:31.207Z,96435.80
2018-04-15T14:49:58.690Z,96432.48
2018-04-15T14:52:26.425Z,96430.48
2018-04-15T14:54:53.845Z,96433.92
2018-04-15T14:57:21.312Z,96433.56
2018-04-15T14:59:48.730Z,96430.15
2018-04-15T15:02:16.168Z,96428.52
2018-04-15T15:04:44.538Z,96429.41
2018-04-15T15:07:12.111Z,96433.62
2018-04-15T15:09:39.605Z,96423.75
2018-04-15T15:12:07.186Z,96426.52
2018-04-15T15:14:34.673Z,96422.27
2018-04-15T15:17:02.109Z,96419.12
2018-04-15T15:19:29.592Z,96422.62
2018-04-15T15:21:56.990Z,96417.67
2018-04-15T15:24:24.401Z,96428.06
2018-04-15T15:26:51.835Z,96429.36
2018-04-15T15:29:19.345Z,96422.98
2018-04-15T15:31:46.783Z,96426.74
2018-04-15T15:34:14.273Z,96433.89
2018-04-15T15:36:41.776Z,96430.41
2018-04-15T15:39:09.229Z,96429.00
2018-04-15T15:41:36.703Z,96430.88
2018-04-15T15:44:04.924Z,96437.20
2018-04-15T15:46:32.357Z,96432.59
2018-04-15T15:48:59.783Z,96432.75
2018-04-15T15:51:27.220Z,96434.54
2018-04-15T15:53:54.736Z,96432.41
2018-04-15T15:56:22.238Z,96432.52
2018-04-15T15:58:49.633Z,96430.44
2018-04-15T16:01:17.216Z,96435.08
2018-04-15T16:03:44.665Z,96434.73
2018-04-15T16:06:12.103Z,96435.08
2018-04-15T16:08:39.717Z,96441.44
2018-04-15T16:11:07.290Z,96444.33
2018-04-15T16:13:34.812Z,96451.75
2018-04-15T16:16:02.202Z,96447.84
2018-04-15T16:18:29.598Z,96453.73
2018-04-15T16:20:57.070Z,96461.46
2018-04-15T16:23:24.689Z,96462.61
2018-04-15T16:25:52.227Z,96459.37
2018-04-15T16:28:19.672Z,96465.80
2018-04-15T16:30:47.104Z,96459.43
2018-04-15T16:33:14.585Z,96467.63
2018-04-15T16:35:42.044Z,96462.02
2018-04-15T16:38:09.698Z,96459.83
2018-04-15T16:40:37.164Z,96460.16
2018-04-15T16:43:04.616Z,96461.61
2018-04-15T16:45:32.012Z,96470.27
2018-04-15T16:47:59.588Z,96470.35
2018-04-15T16:50:27.011Z,96468.34
2018-04-15T16:52:54.547Z,96474.22
2018-04-15T16:55:22.217Z,96475.52
2018-04-15T16:57:49.661Z,96470.26
2018-04-15T17:00:17.149Z,96472.36
2018-04-15T17:02:44.604Z,96475.99
2018-04-15T17:05:12.026Z,96479.03
2018-04-15T17:07:39.500Z,96482.89
2018-04-15T17:10:06.956Z,96485.05
2018-04-15T17:12:34.522Z,96492.54
2018-04-15T17:15:02.035Z,96498.72
2018-04-15T17:17:29.472Z,96500.73
2018-04-15T17:19:56.917Z,96506.81
2018-04-15T17:22:24.412Z,96511.66
2018-04-15T17:24:52.452Z,96513.53
2018-04-15T17:27:19.880Z,96512.97
2018-04-15T17:29:47.547Z,96521.45
2018-04-15T17:32:15.096Z,96526.96
2018-04-15T17:34:42.538Z,96528.70
2018-04-15T17:37:09.960Z,96530.09
2018-04-15T17:39:37.400Z,96534.53
2018-04-15T17:42:04.864Z,96541.61
2018-04-15T17:44:32.324Z,96544.01
2018-04-15T17:46:59.925Z,96543.10
2018-04-15T17:49:27.341Z,96553.73
2018-04-15T17:51:54.832Z,96553.89
2018-04-15T17:54:22.262Z,96553.97
2018-04-15T17:56:49.657Z,96558.21
2018-04-15T17:59:17.114Z,96561.02
2018-04-15T18:01:44.572Z,96564.94
2018-04-15T18:04:12.036Z,96562.30
2018-04-15T18:06:39.505Z,96565.91
2018-04-15T18:09:06.950Z,96566.25
2018-04-15T18:11:34.445Z,96557.46
2018-04-15T18:14:01.839Z,96555.63
2018-04-15T18:16:29.320Z,96552.47
2018-04-15T18:18:56.747Z,96550.82
2018-04-15T18:21:24.205Z,96549.73
2018-04-15T18:23:51.637Z,96557.44
2018-04-15T18:26:19.235Z,96562.48
2018-04-15T18:28:46.729Z,96570.30
2018-04-15T18:31:14.130Z,96571.87
2018-04-15T18:33:41.556Z,96575.84
2018-04-15T18:36:08.986Z,96580.23
2018-04-15T18:38:36.434Z,96589.22
2018-04-15T18:41:03.855Z,96597.18
2018-04-15T18:43:31.274Z,96590.61
2018-04-15T18:45:58.761Z,96601.56
2018-04-15T18:48:26.169Z,96596.91
2018-04-15T18:50:53.629Z,96607.74
2018-04-15T18:53:21.105Z,96608.33
2018-04-15T18:55:48.519Z,96612.34
2018-04-15T18:58:15.922Z,96613.05
2018-04-15T19:00:43.448Z,96614.97
2018-04-15T19:03:10.887Z,96622.00
2018-04-15T19:05:38.390Z,96627.06
2018-04-15T19:08:05.921Z,96631.34
2018-04-15T19:10:33.511Z,96636.09
2018-04-15T19:13:01.005Z,96636.77
2018-04-15T19:15:28.483Z,96632.02
2018-04-15T19:17:56.719Z,96634.27
2018-04-15T19:20:24.199Z,96634.35
2018-04-15T19:22:51.693Z,96646.83
2018-04-15T19:25:19.123Z,96649.48
2018-04-15T19:27:46.564Z,96650.72
2018-04-15T19:30:14.004Z,96654.97
2018-04-15T19:32:41.502Z,96659.05
2018-04-15T19:35:09.192Z,96668.08
2018-04-15T19:37:36.664Z,96665.44
2018-04-15T19:40:04.078Z,96666.50
2018-04-15T19:42:31.488Z,96666.56
2018-04-15T19:44:58.956Z,96660.47
2018-04-15T19:47:26.364Z,96663.30
2018-04-15T19:49:53.793Z,96664.31
2018-04-15T19:52:22.395Z,96664.63
2018-04-15T19:54:49.796Z,96661.33
2018-04-15T19:57:17.315Z,96664.72
2018-04-15T19:59:44.779Z,96666.92
2018-04-15T20:02:12.228Z,96668.55
2018-04-15T20:04:39.762Z,96665.97
2018-04-15T20:07:07.591Z,96664.41
2018-04-15T20:09:35.092Z,96674.19
2018-04-15T20:12:02.501Z,96681.15
2018-04-15T20:14:29.943Z,96678.50
2018-04-15T20:16:57.384Z,96670.86
2018-04-15T20:19:24.845Z,96680.13
2018-04-15T20:21:52.303Z,96675.06
2018-04-15T20:24:19.725Z,96676.34
2018-04-15T20:26:47.188Z,96670.36
2018-04-15T20:29:14.664Z,96668.16
2018-04-15T20:31:42.100Z,96670.80
2018-04-15T20:34:09.487Z,96670.36
2018-04-15T20:36:37.071Z,96672.05
2018-04-15T20:39:04.512Z,96670.48
2018-04-15T20:41:31.960Z,96673.86
2018-04-15T20:43:59.411Z,96673.86
2018-04-15T20:46:26.876Z,96672.21
2018-04-15T20:48:54.308Z,96673.73
2018-04-15T20:51:21.725Z,96678.77
2018-04-15T20:53:49.246Z,96679.27
2018-04-15T20:56:16.651Z,96686.77
2018-04-15T20:58:44.170Z,96686.30
2018-04-15T21:01:11.591Z,96691.33
2018-04-15T21:03:39.024Z,96691.50
2018-04-15T21:06:06.425Z,96695.03
2018-04-15T21:08:33.899Z,96701.80
2018-04-15T21:11:01.362Z,96702.70
2018-04-15T21:13:28.783Z,96701.88
2018-04-15T21:15:56.234Z,96710.47
2018-04-15T21:18:23.703Z,96712.93
2018-04-15T21:20:51.130Z,96708.77
2018-04-15T21:23:18.564Z,96712.20
2018-04-15T21:25:46.036Z,96714.06
2018-04-15T21:28:13.470Z,96719.87
2018-04-15T21:30:40.946Z,96719.28
2018-04-15T21:33:08.331Z,96718.92
2018-04-15T21:35:35.800Z,96714.76
2018-04-15T21:38:03.275Z,96714.03
2018-04-15T21:40:31.396Z,96714.49
2018-04-15T21:42:58.802Z,96726.52
2018-04-15T21:45:26.244Z,96726.32
2018-04-15T21:47:53.644Z,96728.03
2018-04-15T21:50:21.177Z,96736.39
2018-04-15T21:52:48.652Z,96738.63
2018-04-15T21:55:16.072Z,96736.81
2018-04-15T21:57:43.499Z,96745.03
2018-04-15T22:00:10.925Z,96739.56
2018-04-15T22:02:38.378Z,96738.87
2018-04-15T22:05:05.861Z,96731.75
2018-04-15T22:07:33.287Z,96732.75
2018-04-15T22:10:00.695Z,96738.73
2018-04-15T22:12:28.666Z,96733.95
2018-04-15T22:14:56.204Z,96737.61
2018-04-15T22:17:23.682Z,96727.27
2018-04-15T22:19:51.157Z,96737.02
2018-04-15T22:22:18.865Z,96736.11
2018-04-15T22:24:46.347Z,96744.50
2018-04-15T22:27:13.807Z,96738.86
2018-04-15T22:29:41.220Z,96743.02
2018-04-15T22:32:09.103Z,96736.47
2018-04-15T22:34:36.524Z,96738.47
2018-04-15T22:37:03.994Z,96747.08
2018-04-15T22:39:31.394Z,96754.14
2018-04-15T22:41:58.805Z,96759.05
2018-04-15T22:44:26.227Z,96756.53
2018-04-15T22:46:53.657Z,96759.28
2018-04-15T22:49:23.218Z,96759.05
2018-04-15T22:51:50.665Z,96752.05
2018-04-15T22:54:18.078Z,96748.98
2018-04-15T22:56:45.512Z,96752.83
2018-04-15T22:59:13.292Z,96753.98
2018-04-15T23:01:40.704Z,96754.95
2018-04-15T23:04:08.106Z,96757.66
2018-04-15T23:06:35.506Z,96754.67
2018-04-15T23:09:02.914Z,96758.99
2018-04-15T23:11:30.357Z,96758.98
2018-04-15T23:13:57.759Z,96767.56
2018-04-15T23:16:25.223Z,96755.25
2018-04-15T23:18:52.651Z,96761.87
2018-04-15T23:21:20.171Z,96765.41
2018-04-15T23:23:47.615Z,96753.56
2018-04-15T23:26:15.055Z,96753.56
2018-04-15T23:28:42.517Z,96756.27
2018-04-15T23:31:09.972Z,96757.13
2018-04-15T23:33:37.395Z,96760.80
2018-04-15T23:36:04.833Z,96768.23
2018-04-15T23:38:32.372Z,96763.16
2018-04-15T23:40:59.834Z,96760.94
2018-04-15T23:43:27.247Z,96760.80
2018-04-15T23:45:54.729Z,96764.20
2018-04-15T23:48:22.207Z,96764.48
2018-04-15T23:50:49.598Z,96765.39
2018-04-15T23:53:17.007Z,96764.27
2018-04-15T23:55:44.473Z,96771.30
2018-04-15T23:58:11.877Z,96774.42
